Hatboro, PA

9:43 AM EDT on July 29, 2016 (GMT -0400)
Hidden Creek | | Change Station

Elev 302 ft 40.19 °N, 75.12 °W | Updated 11 minutes ago

Mostly Cloudy
Mostly Cloudy
73.2 °F
Feels Like 73.2 °F
N
1.7
Wind Variable Wind from NNE

Today
High -- | Low -- °F
--% Chance of Precip.
Yesterday
High -- | Low -- °F
Precip. -- in
Pressure 29.87 in
Visibility 10.0 miles
Clouds Few 900 ft
Mostly Cloudy 5500 ft
Dew Point 72 °F
Humidity 97%
Rainfall 0.46 in
Snow Depth Not available.
5:56 AM 8:17 PM
Waning Crescent, 22% visible
SPECI KPNE 291305Z 03008KT 10SM FEW009 BKN055 24/22 A2987 RMK AO2 T02440222
Pressure 29.87 in
Visibility 10.0 miles
Clouds Few 900 ft
Mostly Cloudy 5500 ft
Dew Point 72 °F
Humidity 97%
Rainfall 0.46 in
Snow Depth Not available.
5:56 AM 8:17 PM
Waning Crescent, 22% visible
SPECI KPNE 291305Z 03008KT 10SM FEW009 BKN055 24/22 A2987 RMK AO2 T02440222

10-Day Weather Forecast

Almanac

Astronomy

Jul. 29, 2016 Rise Set
Actual Time
Civil Twilight
Nautical Twilight
Astronomical Twilight
Moon
Length of Visible Light
Length of Day
Tomorrow will be .
, % of the Moon is Illuminated

Today's Extremes

State Highs State Lows

Community

WunderPhotos

Upload Photos

1,928,340 photos uploaded!

WunderBlog® & News

Nearby

Air Quality

  Air Quality AQ Index Pollutant
Not available.

Snow Depth

Station Depth Elevation

Earthquake Activity

City Distance Mag. Time & Date
Minimum magnitude displayed is 2.5.

Coastal Water Temperatures

Place Temperature

Stations

Nearby Weather Stations

Station Location Temp. Windchill Dew Point Humidity Wind Precip. Elev Updated Type
                   

Watches & Warnings

There are currently no watches in effect.